sensor_id;sensor_type;location;lat;lon;timestamp;P1;durP1;ratioP1;P2;durP2;ratioP2
8213;SDS011;4148;47.974;7.824;2022-10-19T00:02:26;8.10;;;4.73;;
8213;SDS011;4148;47.974;7.824;2022-10-19T00:04:54;8.87;;;4.90;;
8213;SDS011;4148;47.974;7.824;2022-10-19T00:07:24;7.63;;;4.60;;
8213;SDS011;4148;47.974;7.824;2022-10-19T00:09:52;9.00;;;5.40;;
8213;SDS011;4148;47.974;7.824;2022-10-19T00:12:20;8.80;;;5.00;;
8213;SDS011;4148;47.974;7.824;2022-10-19T00:14:48;9.37;;;5.27;;
8213;SDS011;4148;47.974;7.824;2022-10-19T00:17:15;4.70;;;4.23;;
8213;SDS011;4148;47.974;7.824;2022-10-19T00:19:45;8.13;;;4.67;;
8213;SDS011;4148;47.974;7.824;2022-10-19T00:22:12;6.93;;;4.77;;
8213;SDS011;4148;47.974;7.824;2022-10-19T00:24:40;6.93;;;4.80;;
8213;SDS011;4148;47.974;7.824;2022-10-19T00:27:08;11.60;;;5.07;;
8213;SDS011;4148;47.974;7.824;2022-10-19T00:29:36;6.17;;;4.30;;
8213;SDS011;4148;47.974;7.824;2022-10-19T00:32:04;8.17;;;5.10;;
8213;SDS011;4148;47.974;7.824;2022-10-19T00:34:32;14.40;;;4.60;;
8213;SDS011;4148;47.974;7.824;2022-10-19T00:37:01;8.30;;;4.50;;
8213;SDS011;4148;47.974;7.824;2022-10-19T00:39:29;9.13;;;4.70;;
8213;SDS011;4148;47.974;7.824;2022-10-19T00:41:57;6.83;;;4.90;;
8213;SDS011;4148;47.974;7.824;2022-10-19T00:47:25;7.83;;;4.37;;
8213;SDS011;4148;47.974;7.824;2022-10-19T00:49:54;8.13;;;4.60;;
8213;SDS011;4148;47.974;7.824;2022-10-19T00:52:25;8.87;;;4.90;;
8213;SDS011;4148;47.974;7.824;2022-10-19T00:54:54;8.33;;;4.30;;
8213;SDS011;4148;47.974;7.824;2022-10-19T00:57:25;8.90;;;4.47;;
8213;SDS011;4148;47.974;7.824;2022-10-19T00:59:56;11.20;;;4.63;;
8213;SDS011;4148;47.974;7.824;2022-10-19T01:02:27;8.33;;;4.80;;
8213;SDS011;4148;47.974;7.824;2022-10-19T01:04:54;7.83;;;4.70;;
8213;SDS011;4148;47.974;7.824;2022-10-19T01:07:22;9.53;;;5.00;;
8213;SDS011;4148;47.974;7.824;2022-10-19T01:09:52;7.60;;;5.50;;
8213;SDS011;4148;47.974;7.824;2022-10-19T01:12:30;7.30;;;4.40;;
8213;SDS011;4148;47.974;7.824;2022-10-19T01:15:15;8.73;;;5.27;;
8213;SDS011;4148;47.974;7.824;2022-10-19T01:17:52;8.80;;;5.10;;
8213;SDS011;4148;47.974;7.824;2022-10-19T01:23:37;6.87;;;4.30;;
8213;SDS011;4148;47.974;7.824;2022-10-19T01:26:35;8.90;;;4.27;;
8213;SDS011;4148;47.974;7.824;2022-10-19T01:29:28;11.03;;;4.47;;
8213;SDS011;4148;47.974;7.824;2022-10-19T01:32:10;8.37;;;4.60;;
8213;SDS011;4148;47.974;7.824;2022-10-19T01:34:43;6.70;;;4.63;;
8213;SDS011;4148;47.974;7.824;2022-10-19T01:37:19;6.93;;;4.80;;
8213;SDS011;4148;47.974;7.824;2022-10-19T01:39:58;10.13;;;5.00;;
8213;SDS011;4148;47.974;7.824;2022-10-19T01:42:34;8.47;;;4.33;;
8213;SDS011;4148;47.974;7.824;2022-10-19T01:45:10;8.27;;;5.27;;
8213;SDS011;4148;47.974;7.824;2022-10-19T01:47:46;6.00;;;4.50;;
8213;SDS011;4148;47.974;7.824;2022-10-19T01:50:18;8.63;;;4.77;;
8213;SDS011;4148;47.974;7.824;2022-10-19T01:52:51;9.37;;;4.90;;
8213;SDS011;4148;47.974;7.824;2022-10-19T01:55:21;11.93;;;4.73;;
8213;SDS011;4148;47.974;7.824;2022-10-19T01:57:54;5.20;;;4.50;;
8213;SDS011;4148;47.974;7.824;2022-10-19T02:00:25;6.50;;;4.60;;
8213;SDS011;4148;47.974;7.824;2022-10-19T02:02:56;7.37;;;4.53;;
8213;SDS011;4148;47.974;7.824;2022-10-19T02:05:27;6.53;;;4.63;;
8213;SDS011;4148;47.974;7.824;2022-10-19T02:07:59;9.90;;;4.87;;
8213;SDS011;4148;47.974;7.824;2022-10-19T02:10:29;10.10;;;4.33;;
8213;SDS011;4148;47.974;7.824;2022-10-19T02:13:00;8.97;;;4.47;;
8213;SDS011;4148;47.974;7.824;2022-10-19T02:15:29;9.33;;;4.50;;
8213;SDS011;4148;47.974;7.824;2022-10-19T02:18:03;9.27;;;4.60;;
8213;SDS011;4148;47.974;7.824;2022-10-19T02:20:33;6.23;;;4.20;;
8213;SDS011;4148;47.974;7.824;2022-10-19T02:23:03;8.13;;;4.97;;
8213;SDS011;4148;47.974;7.824;2022-10-19T02:25:31;6.87;;;4.60;;
8213;SDS011;4148;47.974;7.824;2022-10-19T02:28:00;6.40;;;4.13;;
8213;SDS011;4148;47.974;7.824;2022-10-19T02:30:28;5.20;;;4.20;;
8213;SDS011;4148;47.974;7.824;2022-10-19T02:32:57;9.83;;;4.97;;
8213;SDS011;4148;47.974;7.824;2022-10-19T02:35:26;7.53;;;4.70;;
8213;SDS011;4148;47.974;7.824;2022-10-19T02:37:54;7.97;;;4.20;;
8213;SDS011;4148;47.974;7.824;2022-10-19T02:40:26;7.07;;;4.93;;
8213;SDS011;4148;47.974;7.824;2022-10-19T02:42:57;5.70;;;4.20;;
8213;SDS011;4148;47.974;7.824;2022-10-19T02:45:30;6.50;;;4.33;;
8213;SDS011;4148;47.974;7.824;2022-10-19T02:48:04;6.73;;;4.80;;
8213;SDS011;4148;47.974;7.824;2022-10-19T02:50:37;5.20;;;4.13;;
8213;SDS011;4148;47.974;7.824;2022-10-19T02:53:09;8.10;;;5.03;;
8213;SDS011;4148;47.974;7.824;2022-10-19T02:55:37;5.40;;;4.07;;
8213;SDS011;4148;47.974;7.824;2022-10-19T02:58:11;8.10;;;4.47;;
8213;SDS011;4148;47.974;7.824;2022-10-19T03:00:38;8.70;;;5.37;;
8213;SDS011;4148;47.974;7.824;2022-10-19T03:03:06;12.10;;;6.63;;
8213;SDS011;4148;47.974;7.824;2022-10-19T03:05:34;11.17;;;6.20;;
8213;SDS011;4148;47.974;7.824;2022-10-19T03:08:04;10.23;;;7.20;;
8213;SDS011;4148;47.974;7.824;2022-10-19T03:10:31;18.40;;;7.00;;
8213;SDS011;4148;47.974;7.824;2022-10-19T03:12:59;19.80;;;7.63;;
8213;SDS011;4148;47.974;7.824;2022-10-19T03:15:27;14.70;;;7.97;;
8213;SDS011;4148;47.974;7.824;2022-10-19T03:17:55;14.93;;;6.80;;
8213;SDS011;4148;47.974;7.824;2022-10-19T03:20:23;15.60;;;7.37;;
8213;SDS011;4148;47.974;7.824;2022-10-19T03:22:51;14.20;;;6.83;;
8213;SDS011;4148;47.974;7.824;2022-10-19T03:25:20;11.60;;;6.70;;
8213;SDS011;4148;47.974;7.824;2022-10-19T03:27:48;8.60;;;6.87;;
8213;SDS011;4148;47.974;7.824;2022-10-19T03:30:16;13.20;;;7.67;;
8213;SDS011;4148;47.974;7.824;2022-10-19T03:32:43;17.20;;;8.77;;
8213;SDS011;4148;47.974;7.824;2022-10-19T03:35:11;14.33;;;7.83;;
8213;SDS011;4148;47.974;7.824;2022-10-19T03:37:39;14.77;;;8.00;;
8213;SDS011;4148;47.974;7.824;2022-10-19T03:40:08;21.63;;;8.47;;
8213;SDS011;4148;47.974;7.824;2022-10-19T03:42:37;18.50;;;8.60;;
8213;SDS011;4148;47.974;7.824;2022-10-19T03:45:05;20.70;;;9.60;;
8213;SDS011;4148;47.974;7.824;2022-10-19T03:47:34;22.07;;;10.03;;
8213;SDS011;4148;47.974;7.824;2022-10-19T03:50:02;17.90;;;10.60;;
8213;SDS011;4148;47.974;7.824;2022-10-19T03:52:31;16.40;;;10.27;;
8213;SDS011;4148;47.974;7.824;2022-10-19T03:54:59;24.83;;;10.07;;
8213;SDS011;4148;47.974;7.824;2022-10-19T03:57:26;16.73;;;10.30;;
8213;SDS011;4148;47.974;7.824;2022-10-19T03:59:56;16.23;;;9.13;;
8213;SDS011;4148;47.974;7.824;2022-10-19T04:02:23;14.07;;;8.70;;
8213;SDS011;4148;47.974;7.824;2022-10-19T04:04:51;14.80;;;8.67;;
8213;SDS011;4148;47.974;7.824;2022-10-19T04:07:19;20.83;;;9.27;;
8213;SDS011;4148;47.974;7.824;2022-10-19T04:09:47;12.07;;;8.67;;
8213;SDS011;4148;47.974;7.824;2022-10-19T04:12:15;16.67;;;9.93;;
8213;SDS011;4148;47.974;7.824;2022-10-19T04:14:43;23.90;;;9.33;;
8213;SDS011;4148;47.974;7.824;2022-10-19T04:17:24;15.07;;;10.03;;
8213;SDS011;4148;47.974;7.824;2022-10-19T04:19:52;27.57;;;8.97;;
8213;SDS011;4148;47.974;7.824;2022-10-19T04:22:20;14.03;;;9.10;;
8213;SDS011;4148;47.974;7.824;2022-10-19T04:24:47;14.20;;;9.00;;
8213;SDS011;4148;47.974;7.824;2022-10-19T04:27:15;13.27;;;8.97;;
8213;SDS011;4148;47.974;7.824;2022-10-19T04:29:43;14.57;;;9.40;;
8213;SDS011;4148;47.974;7.824;2022-10-19T04:32:11;16.47;;;9.93;;
8213;SDS011;4148;47.974;7.824;2022-10-19T04:34:40;17.43;;;10.07;;
8213;SDS011;4148;47.974;7.824;2022-10-19T04:37:11;15.30;;;9.07;;
8213;SDS011;4148;47.974;7.824;2022-10-19T04:39:39;13.27;;;8.87;;
8213;SDS011;4148;47.974;7.824;2022-10-19T04:42:08;20.23;;;10.03;;
8213;SDS011;4148;47.974;7.824;2022-10-19T04:44:36;15.73;;;9.87;;
8213;SDS011;4148;47.974;7.824;2022-10-19T04:47:04;14.60;;;9.70;;
8213;SDS011;4148;47.974;7.824;2022-10-19T04:49:32;13.60;;;9.57;;
8213;SDS011;4148;47.974;7.824;2022-10-19T04:52:01;29.90;;;9.60;;
8213;SDS011;4148;47.974;7.824;2022-10-19T04:54:29;13.30;;;9.50;;
8213;SDS011;4148;47.974;7.824;2022-10-19T04:56:57;10.60;;;8.20;;
8213;SDS011;4148;47.974;7.824;2022-10-19T04:59:25;10.27;;;7.50;;
8213;SDS011;4148;47.974;7.824;2022-10-19T05:01:53;9.67;;;7.50;;
8213;SDS011;4148;47.974;7.824;2022-10-19T05:04:21;13.87;;;8.30;;
8213;SDS011;4148;47.974;7.824;2022-10-19T05:06:49;14.03;;;8.63;;
8213;SDS011;4148;47.974;7.824;2022-10-19T05:09:18;12.73;;;8.23;;
8213;SDS011;4148;47.974;7.824;2022-10-19T05:11:47;9.80;;;8.00;;
8213;SDS011;4148;47.974;7.824;2022-10-19T05:14:16;14.33;;;7.60;;
8213;SDS011;4148;47.974;7.824;2022-10-19T05:16:44;14.90;;;8.53;;
8213;SDS011;4148;47.974;7.824;2022-10-19T05:19:12;14.80;;;8.10;;
8213;SDS011;4148;47.974;7.824;2022-10-19T05:21:40;18.77;;;8.90;;
8213;SDS011;4148;47.974;7.824;2022-10-19T05:24:09;13.27;;;8.07;;
8213;SDS011;4148;47.974;7.824;2022-10-19T05:26:40;12.37;;;7.87;;
8213;SDS011;4148;47.974;7.824;2022-10-19T05:29:09;11.00;;;8.50;;
8213;SDS011;4148;47.974;7.824;2022-10-19T05:31:38;14.63;;;9.10;;
8213;SDS011;4148;47.974;7.824;2022-10-19T05:34:06;13.03;;;9.10;;
8213;SDS011;4148;47.974;7.824;2022-10-19T05:36:34;20.97;;;11.07;;
8213;SDS011;4148;47.974;7.824;2022-10-19T05:39:04;13.27;;;8.20;;
8213;SDS011;4148;47.974;7.824;2022-10-19T05:41:33;13.07;;;9.60;;
8213;SDS011;4148;47.974;7.824;2022-10-19T05:44:03;12.77;;;9.00;;
8213;SDS011;4148;47.974;7.824;2022-10-19T05:46:32;11.23;;;8.80;;
8213;SDS011;4148;47.974;7.824;2022-10-19T05:49:00;12.57;;;10.13;;
8213;SDS011;4148;47.974;7.824;2022-10-19T05:51:28;12.70;;;8.30;;
8213;SDS011;4148;47.974;7.824;2022-10-19T05:53:56;13.40;;;8.80;;
8213;SDS011;4148;47.974;7.824;2022-10-19T05:56:24;10.20;;;8.50;;
8213;SDS011;4148;47.974;7.824;2022-10-19T05:58:53;12.97;;;8.60;;
8213;SDS011;4148;47.974;7.824;2022-10-19T06:01:23;13.50;;;8.70;;
8213;SDS011;4148;47.974;7.824;2022-10-19T06:03:52;11.37;;;8.17;;
8213;SDS011;4148;47.974;7.824;2022-10-19T06:06:21;15.40;;;8.80;;
8213;SDS011;4148;47.974;7.824;2022-10-19T06:08:50;12.50;;;7.90;;
8213;SDS011;4148;47.974;7.824;2022-10-19T06:11:20;11.87;;;9.03;;
8213;SDS011;4148;47.974;7.824;2022-10-19T06:13:49;12.30;;;8.63;;
8213;SDS011;4148;47.974;7.824;2022-10-19T06:16:18;13.80;;;8.50;;
8213;SDS011;4148;47.974;7.824;2022-10-19T06:18:48;12.90;;;7.90;;
8213;SDS011;4148;47.974;7.824;2022-10-19T06:21:17;11.50;;;7.17;;
8213;SDS011;4148;47.974;7.824;2022-10-19T06:23:48;14.57;;;8.47;;
8213;SDS011;4148;47.974;7.824;2022-10-19T06:26:16;15.37;;;8.73;;
8213;SDS011;4148;47.974;7.824;2022-10-19T06:28:44;16.40;;;8.80;;
8213;SDS011;4148;47.974;7.824;2022-10-19T06:31:13;13.60;;;8.93;;
8213;SDS011;4148;47.974;7.824;2022-10-19T06:33:42;13.63;;;8.60;;
8213;SDS011;4148;47.974;7.824;2022-10-19T06:36:19;11.03;;;8.40;;
8213;SDS011;4148;47.974;7.824;2022-10-19T06:38:48;13.13;;;9.20;;
8213;SDS011;4148;47.974;7.824;2022-10-19T06:41:18;16.63;;;8.00;;
8213;SDS011;4148;47.974;7.824;2022-10-19T06:43:49;11.83;;;8.27;;
8213;SDS011;4148;47.974;7.824;2022-10-19T06:46:18;23.03;;;9.13;;
8213;SDS011;4148;47.974;7.824;2022-10-19T06:48:48;15.03;;;9.37;;
8213;SDS011;4148;47.974;7.824;2022-10-19T06:51:18;12.83;;;8.13;;
8213;SDS011;4148;47.974;7.824;2022-10-19T06:53:47;13.70;;;8.30;;
8213;SDS011;4148;47.974;7.824;2022-10-19T06:56:21;12.93;;;9.33;;
8213;SDS011;4148;47.974;7.824;2022-10-19T06:58:50;17.40;;;9.10;;
8213;SDS011;4148;47.974;7.824;2022-10-19T07:01:19;10.83;;;7.50;;
8213;SDS011;4148;47.974;7.824;2022-10-19T07:03:48;10.70;;;8.60;;
8213;SDS011;4148;47.974;7.824;2022-10-19T07:06:18;13.50;;;7.20;;
8213;SDS011;4148;47.974;7.824;2022-10-19T07:08:46;12.20;;;7.20;;
8213;SDS011;4148;47.974;7.824;2022-10-19T07:11:15;9.37;;;7.47;;
8213;SDS011;4148;47.974;7.824;2022-10-19T07:13:44;9.83;;;7.10;;
8213;SDS011;4148;47.974;7.824;2022-10-19T07:16:13;11.77;;;7.90;;
8213;SDS011;4148;47.974;7.824;2022-10-19T07:18:46;15.50;;;8.50;;
8213;SDS011;4148;47.974;7.824;2022-10-19T07:21:16;9.87;;;8.23;;
8213;SDS011;4148;47.974;7.824;2022-10-19T07:23:46;10.93;;;8.37;;
8213;SDS011;4148;47.974;7.824;2022-10-19T07:26:15;11.40;;;8.23;;
8213;SDS011;4148;47.974;7.824;2022-10-19T07:28:45;12.37;;;9.20;;
8213;SDS011;4148;47.974;7.824;2022-10-19T07:31:15;12.67;;;8.67;;
8213;SDS011;4148;47.974;7.824;2022-10-19T07:33:45;12.10;;;8.87;;
8213;SDS011;4148;47.974;7.824;2022-10-19T07:36:13;11.60;;;9.33;;
8213;SDS011;4148;47.974;7.824;2022-10-19T07:38:41;12.30;;;9.00;;
8213;SDS011;4148;47.974;7.824;2022-10-19T07:41:11;13.33;;;8.77;;
8213;SDS011;4148;47.974;7.824;2022-10-19T07:43:40;11.67;;;8.93;;
8213;SDS011;4148;47.974;7.824;2022-10-19T07:46:14;11.27;;;8.80;;
8213;SDS011;4148;47.974;7.824;2022-10-19T07:48:43;14.67;;;8.87;;
8213;SDS011;4148;47.974;7.824;2022-10-19T07:51:12;15.13;;;9.43;;
8213;SDS011;4148;47.974;7.824;2022-10-19T07:53:41;12.27;;;8.13;;
8213;SDS011;4148;47.974;7.824;2022-10-19T07:56:11;12.17;;;8.93;;
8213;SDS011;4148;47.974;7.824;2022-10-19T07:58:41;12.10;;;8.70;;
8213;SDS011;4148;47.974;7.824;2022-10-19T08:01:11;12.07;;;8.10;;
8213;SDS011;4148;47.974;7.824;2022-10-19T08:03:40;11.40;;;8.53;;
8213;SDS011;4148;47.974;7.824;2022-10-19T08:06:29;31.37;;;10.00;;
8213;SDS011;4148;47.974;7.824;2022-10-19T08:08:56;12.23;;;8.30;;
8213;SDS011;4148;47.974;7.824;2022-10-19T08:11:27;14.73;;;8.80;;
8213;SDS011;4148;47.974;7.824;2022-10-19T08:13:56;18.57;;;9.63;;
8213;SDS011;4148;47.974;7.824;2022-10-19T08:16:25;16.23;;;10.17;;
8213;SDS011;4148;47.974;7.824;2022-10-19T08:18:56;20.70;;;10.03;;
8213;SDS011;4148;47.974;7.824;2022-10-19T08:21:25;14.30;;;9.70;;
8213;SDS011;4148;47.974;7.824;2022-10-19T08:23:54;12.53;;;9.30;;
8213;SDS011;4148;47.974;7.824;2022-10-19T08:26:22;12.17;;;8.57;;
8213;SDS011;4148;47.974;7.824;2022-10-19T08:28:51;15.27;;;9.60;;
8213;SDS011;4148;47.974;7.824;2022-10-19T08:31:19;11.00;;;8.40;;
8213;SDS011;4148;47.974;7.824;2022-10-19T08:33:48;12.67;;;8.60;;
8213;SDS011;4148;47.974;7.824;2022-10-19T08:36:17;14.90;;;8.60;;
8213;SDS011;4148;47.974;7.824;2022-10-19T08:38:46;11.63;;;8.53;;
8213;SDS011;4148;47.974;7.824;2022-10-19T08:41:17;12.37;;;8.63;;
8213;SDS011;4148;47.974;7.824;2022-10-19T08:44:00;15.60;;;8.60;;
8213;SDS011;4148;47.974;7.824;2022-10-19T08:47:07;13.77;;;8.80;;
8213;SDS011;4148;47.974;7.824;2022-10-19T08:49:43;14.70;;;8.80;;
8213;SDS011;4148;47.974;7.824;2022-10-19T08:52:12;12.43;;;8.50;;
8213;SDS011;4148;47.974;7.824;2022-10-19T08:54:45;11.70;;;8.43;;
8213;SDS011;4148;47.974;7.824;2022-10-19T08:57:22;10.53;;;8.53;;
8213;SDS011;4148;47.974;7.824;2022-10-19T09:00:03;12.50;;;8.37;;
8213;SDS011;4148;47.974;7.824;2022-10-19T09:02:38;10.23;;;7.73;;
8213;SDS011;4148;47.974;7.824;2022-10-19T09:05:19;11.70;;;8.67;;
8213;SDS011;4148;47.974;7.824;2022-10-19T09:07:57;10.90;;;7.30;;
8213;SDS011;4148;47.974;7.824;2022-10-19T09:10:26;16.13;;;10.00;;
8213;SDS011;4148;47.974;7.824;2022-10-19T09:12:58;12.27;;;8.20;;
8213;SDS011;4148;47.974;7.824;2022-10-19T09:15:31;11.63;;;8.40;;
8213;SDS011;4148;47.974;7.824;2022-10-19T09:18:04;10.50;;;7.27;;
8213;SDS011;4148;47.974;7.824;2022-10-19T09:20:37;10.60;;;8.00;;
8213;SDS011;4148;47.974;7.824;2022-10-19T09:23:11;12.70;;;8.43;;
8213;SDS011;4148;47.974;7.824;2022-10-19T09:25:52;9.20;;;7.13;;
8213;SDS011;4148;47.974;7.824;2022-10-19T09:28:26;13.60;;;8.20;;
8213;SDS011;4148;47.974;7.824;2022-10-19T09:31:07;9.53;;;7.80;;
8213;SDS011;4148;47.974;7.824;2022-10-19T09:33:41;10.07;;;8.13;;
8213;SDS011;4148;47.974;7.824;2022-10-19T09:36:12;11.20;;;8.47;;
8213;SDS011;4148;47.974;7.824;2022-10-19T09:38:48;10.40;;;7.90;;
8213;SDS011;4148;47.974;7.824;2022-10-19T09:41:17;9.77;;;7.60;;
8213;SDS011;4148;47.974;7.824;2022-10-19T09:43:48;10.87;;;8.77;;
8213;SDS011;4148;47.974;7.824;2022-10-19T09:46:28;10.87;;;7.43;;
8213;SDS011;4148;47.974;7.824;2022-10-19T09:49:04;9.70;;;7.70;;
8213;SDS011;4148;47.974;7.824;2022-10-19T09:54:25;9.73;;;7.37;;
8213;SDS011;4148;47.974;7.824;2022-10-19T09:56:58;9.93;;;6.70;;
8213;SDS011;4148;47.974;7.824;2022-10-19T09:59:28;10.00;;;7.70;;
8213;SDS011;4148;47.974;7.824;2022-10-19T10:02:13;10.50;;;7.60;;
8213;SDS011;4148;47.974;7.824;2022-10-19T10:04:46;9.80;;;8.13;;
8213;SDS011;4148;47.974;7.824;2022-10-19T10:07:21;13.03;;;8.40;;
8213;SDS011;4148;47.974;7.824;2022-10-19T10:09:54;10.20;;;8.03;;
8213;SDS011;4148;47.974;7.824;2022-10-19T10:12:22;10.07;;;8.17;;
8213;SDS011;4148;47.974;7.824;2022-10-19T10:14:50;12.37;;;9.50;;
8213;SDS011;4148;47.974;7.824;2022-10-19T10:17:24;9.50;;;7.57;;
8213;SDS011;4148;47.974;7.824;2022-10-19T10:20:04;14.13;;;9.10;;
8213;SDS011;4148;47.974;7.824;2022-10-19T10:22:50;13.97;;;9.53;;
8213;SDS011;4148;47.974;7.824;2022-10-19T10:25:19;13.50;;;8.97;;
8213;SDS011;4148;47.974;7.824;2022-10-19T10:27:52;14.63;;;10.60;;
8213;SDS011;4148;47.974;7.824;2022-10-19T10:30:21;12.03;;;9.67;;
8213;SDS011;4148;47.974;7.824;2022-10-19T10:32:52;12.67;;;9.70;;
8213;SDS011;4148;47.974;7.824;2022-10-19T10:35:28;14.63;;;9.97;;
8213;SDS011;4148;47.974;7.824;2022-10-19T10:38:08;16.90;;;9.60;;
8213;SDS011;4148;47.974;7.824;2022-10-19T10:40:41;15.30;;;10.40;;
8213;SDS011;4148;47.974;7.824;2022-10-19T10:43:17;13.53;;;10.07;;
8213;SDS011;4148;47.974;7.824;2022-10-19T10:45:49;13.97;;;9.60;;
8213;SDS011;4148;47.974;7.824;2022-10-19T10:48:24;14.20;;;10.10;;
8213;SDS011;4148;47.974;7.824;2022-10-19T10:50:55;14.97;;;10.63;;
8213;SDS011;4148;47.974;7.824;2022-10-19T10:53:30;14.17;;;10.63;;
8213;SDS011;4148;47.974;7.824;2022-10-19T10:56:03;13.77;;;10.73;;
8213;SDS011;4148;47.974;7.824;2022-10-19T10:58:46;14.90;;;11.53;;
8213;SDS011;4148;47.974;7.824;2022-10-19T11:01:17;14.10;;;10.20;;
8213;SDS011;4148;47.974;7.824;2022-10-19T11:03:51;14.27;;;10.40;;
8213;SDS011;4148;47.974;7.824;2022-10-19T11:06:26;11.90;;;9.60;;
8213;SDS011;4148;47.974;7.824;2022-10-19T11:08:57;13.63;;;9.60;;
8213;SDS011;4148;47.974;7.824;2022-10-19T11:11:31;17.33;;;10.40;;
8213;SDS011;4148;47.974;7.824;2022-10-19T11:14:07;14.33;;;10.70;;
8213;SDS011;4148;47.974;7.824;2022-10-19T11:16:49;14.73;;;10.90;;
8213;SDS011;4148;47.974;7.824;2022-10-19T11:19:20;12.83;;;10.00;;
8213;SDS011;4148;47.974;7.824;2022-10-19T11:21:55;13.20;;;10.30;;
8213;SDS011;4148;47.974;7.824;2022-10-19T11:24:29;13.93;;;11.40;;
8213;SDS011;4148;47.974;7.824;2022-10-19T11:27:15;15.33;;;10.53;;
8213;SDS011;4148;47.974;7.824;2022-10-19T11:29:57;13.27;;;10.90;;
8213;SDS011;4148;47.974;7.824;2022-10-19T11:32:34;16.57;;;11.60;;
8213;SDS011;4148;47.974;7.824;2022-10-19T11:35:16;12.70;;;10.87;;
8213;SDS011;4148;47.974;7.824;2022-10-19T11:37:55;12.97;;;10.43;;
8213;SDS011;4148;47.974;7.824;2022-10-19T11:40:47;12.00;;;9.90;;
8213;SDS011;4148;47.974;7.824;2022-10-19T11:43:42;14.83;;;10.47;;
8213;SDS011;4148;47.974;7.824;2022-10-19T11:46:19;14.80;;;11.33;;
8213;SDS011;4148;47.974;7.824;2022-10-19T11:48:55;15.87;;;11.97;;
8213;SDS011;4148;47.974;7.824;2022-10-19T11:51:35;16.23;;;12.13;;
8213;SDS011;4148;47.974;7.824;2022-10-19T11:54:11;14.77;;;11.70;;
8213;SDS011;4148;47.974;7.824;2022-10-19T11:56:53;14.27;;;10.90;;
8213;SDS011;4148;47.974;7.824;2022-10-19T11:59:37;13.17;;;10.03;;
8213;SDS011;4148;47.974;7.824;2022-10-19T12:02:25;16.60;;;12.13;;
8213;SDS011;4148;47.974;7.824;2022-10-19T12:05:10;14.60;;;10.90;;
8213;SDS011;4148;47.974;7.824;2022-10-19T12:07:47;12.73;;;10.50;;
8213;SDS011;4148;47.974;7.824;2022-10-19T12:10:24;14.47;;;11.27;;
8213;SDS011;4148;47.974;7.824;2022-10-19T12:13:00;15.43;;;11.13;;
8213;SDS011;4148;47.974;7.824;2022-10-19T12:15:31;16.13;;;11.87;;
8213;SDS011;4148;47.974;7.824;2022-10-19T12:18:03;16.47;;;13.03;;
8213;SDS011;4148;47.974;7.824;2022-10-19T12:20:37;17.00;;;12.60;;
8213;SDS011;4148;47.974;7.824;2022-10-19T12:23:16;14.83;;;10.23;;
8213;SDS011;4148;47.974;7.824;2022-10-19T12:25:49;13.83;;;10.80;;
8213;SDS011;4148;47.974;7.824;2022-10-19T12:28:20;19.93;;;13.07;;
8213;SDS011;4148;47.974;7.824;2022-10-19T12:30:52;19.63;;;14.23;;
8213;SDS011;4148;47.974;7.824;2022-10-19T12:33:22;18.93;;;12.70;;
8213;SDS011;4148;47.974;7.824;2022-10-19T12:36:01;18.83;;;13.43;;
8213;SDS011;4148;47.974;7.824;2022-10-19T12:38:41;16.17;;;12.40;;
8213;SDS011;4148;47.974;7.824;2022-10-19T12:41:25;19.80;;;12.33;;
8213;SDS011;4148;47.974;7.824;2022-10-19T12:44:11;20.50;;;14.63;;
8213;SDS011;4148;47.974;7.824;2022-10-19T12:47:10;15.90;;;11.50;;
8213;SDS011;4148;47.974;7.824;2022-10-19T12:49:47;18.90;;;12.97;;
8213;SDS011;4148;47.974;7.824;2022-10-19T12:55:20;18.43;;;12.57;;
8213;SDS011;4148;47.974;7.824;2022-10-19T12:57:56;15.90;;;12.47;;
8213;SDS011;4148;47.974;7.824;2022-10-19T13:00:27;20.00;;;14.10;;
8213;SDS011;4148;47.974;7.824;2022-10-19T13:02:58;20.93;;;13.83;;
8213;SDS011;4148;47.974;7.824;2022-10-19T13:05:30;19.73;;;14.87;;
8213;SDS011;4148;47.974;7.824;2022-10-19T13:07:59;17.97;;;12.77;;
8213;SDS011;4148;47.974;7.824;2022-10-19T13:10:31;21.23;;;13.40;;
8213;SDS011;4148;47.974;7.824;2022-10-19T13:13:00;20.20;;;12.93;;
8213;SDS011;4148;47.974;7.824;2022-10-19T13:21:45;21.83;;;14.77;;
8213;SDS011;4148;47.974;7.824;2022-10-19T13:30:05;20.70;;;14.40;;
8213;SDS011;4148;47.974;7.824;2022-10-19T13:33:44;19.63;;;14.63;;
8213;SDS011;4148;47.974;7.824;2022-10-19T13:36:16;22.00;;;16.00;;
8213;SDS011;4148;47.974;7.824;2022-10-19T13:38:45;23.03;;;15.93;;
8213;SDS011;4148;47.974;7.824;2022-10-19T13:41:43;23.00;;;16.33;;
8213;SDS011;4148;47.974;7.824;2022-10-19T13:44:17;20.60;;;15.40;;
8213;SDS011;4148;47.974;7.824;2022-10-19T13:46:51;22.83;;;16.80;;
8213;SDS011;4148;47.974;7.824;2022-10-19T13:49:28;23.27;;;15.33;;
8213;SDS011;4148;47.974;7.824;2022-10-19T13:52:07;23.50;;;16.27;;
8213;SDS011;4148;47.974;7.824;2022-10-19T13:54:55;25.43;;;16.40;;
8213;SDS011;4148;47.974;7.824;2022-10-19T13:57:44;22.80;;;15.90;;
8213;SDS011;4148;47.974;7.824;2022-10-19T14:00:24;20.10;;;14.40;;
8213;SDS011;4148;47.974;7.824;2022-10-19T14:03:01;28.47;;;19.53;;
8213;SDS011;4148;47.974;7.824;2022-10-19T14:05:46;20.90;;;14.77;;
8213;SDS011;4148;47.974;7.824;2022-10-19T14:11:30;22.80;;;15.50;;
8213;SDS011;4148;47.974;7.824;2022-10-19T14:14:10;24.80;;;15.27;;
8213;SDS011;4148;47.974;7.824;2022-10-19T14:16:48;21.30;;;14.90;;
8213;SDS011;4148;47.974;7.824;2022-10-19T14:19:23;22.93;;;15.17;;
8213;SDS011;4148;47.974;7.824;2022-10-19T14:21:53;20.73;;;14.87;;
8213;SDS011;4148;47.974;7.824;2022-10-19T14:24:26;22.63;;;15.27;;
8213;SDS011;4148;47.974;7.824;2022-10-19T14:26:56;21.13;;;14.40;;
8213;SDS011;4148;47.974;7.824;2022-10-19T14:29:26;22.97;;;15.13;;
8213;SDS011;4148;47.974;7.824;2022-10-19T14:31:56;21.20;;;15.13;;
8213;SDS011;4148;47.974;7.824;2022-10-19T14:34:25;20.53;;;14.10;;
8213;SDS011;4148;47.974;7.824;2022-10-19T14:36:53;21.73;;;15.47;;
8213;SDS011;4148;47.974;7.824;2022-10-19T14:39:30;19.70;;;14.87;;
8213;SDS011;4148;47.974;7.824;2022-10-19T14:42:02;20.87;;;14.93;;
8213;SDS011;4148;47.974;7.824;2022-10-19T14:44:38;23.47;;;14.63;;
8213;SDS011;4148;47.974;7.824;2022-10-19T14:47:21;23.77;;;15.00;;
8213;SDS011;4148;47.974;7.824;2022-10-19T14:49:52;21.40;;;15.07;;
8213;SDS011;4148;47.974;7.824;2022-10-19T14:52:21;20.50;;;14.57;;
8213;SDS011;4148;47.974;7.824;2022-10-19T14:54:54;22.13;;;14.70;;
8213;SDS011;4148;47.974;7.824;2022-10-19T14:57:24;19.70;;;13.63;;
8213;SDS011;4148;47.974;7.824;2022-10-19T14:59:55;20.93;;;14.60;;
8213;SDS011;4148;47.974;7.824;2022-10-19T15:02:26;20.10;;;14.70;;
8213;SDS011;4148;47.974;7.824;2022-10-19T15:04:57;23.50;;;14.73;;
8213;SDS011;4148;47.974;7.824;2022-10-19T15:07:29;25.13;;;17.50;;
8213;SDS011;4148;47.974;7.824;2022-10-19T15:10:04;23.33;;;16.43;;
8213;SDS011;4148;47.974;7.824;2022-10-19T15:12:34;23.93;;;17.20;;
8213;SDS011;4148;47.974;7.824;2022-10-19T15:15:07;23.10;;;16.40;;
8213;SDS011;4148;47.974;7.824;2022-10-19T15:17:45;24.40;;;17.40;;
8213;SDS011;4148;47.974;7.824;2022-10-19T15:20:22;20.90;;;15.47;;
8213;SDS011;4148;47.974;7.824;2022-10-19T15:22:52;21.47;;;14.37;;
8213;SDS011;4148;47.974;7.824;2022-10-19T15:25:30;20.87;;;15.70;;
8213;SDS011;4148;47.974;7.824;2022-10-19T15:28:17;24.07;;;16.27;;
8213;SDS011;4148;47.974;7.824;2022-10-19T15:30:56;22.17;;;15.60;;
8213;SDS011;4148;47.974;7.824;2022-10-19T15:33:26;20.37;;;14.40;;
8213;SDS011;4148;47.974;7.824;2022-10-19T15:36:02;22.77;;;15.90;;
8213;SDS011;4148;47.974;7.824;2022-10-19T15:38:33;26.73;;;18.80;;
8213;SDS011;4148;47.974;7.824;2022-10-19T15:41:01;20.77;;;16.53;;
8213;SDS011;4148;47.974;7.824;2022-10-19T15:43:37;28.70;;;18.40;;
8213;SDS011;4148;47.974;7.824;2022-10-19T15:46:21;21.37;;;15.93;;
8213;SDS011;4148;47.974;7.824;2022-10-19T15:48:53;22.03;;;16.13;;
8213;SDS011;4148;47.974;7.824;2022-10-19T15:51:35;22.30;;;16.40;;
8213;SDS011;4148;47.974;7.824;2022-10-19T15:54:05;22.93;;;16.70;;
8213;SDS011;4148;47.974;7.824;2022-10-19T15:56:34;24.67;;;16.73;;
8213;SDS011;4148;47.974;7.824;2022-10-19T15:59:04;28.67;;;17.23;;
8213;SDS011;4148;47.974;7.824;2022-10-19T16:01:36;22.93;;;15.23;;